Lloc web orientat als practicants d'activitats
Centenari de l'SMC: 100 anys mirant el cel

Dades de l'estació automàtica PN del Garraf - el Rascler

?
?

Resum diari

22:30 TU
Dades diàries de l'estació meteorològica
Temperatura mitjana 8.7 °C
Temperatura màxima 13.2 °C 12:51 TU
Temperatura mínima 5.9 °C 4:42 TU
Humitat relativa mitjana 85%
Precipitació acumulada 0.0 mm
Ratxa màxima del vent (2 m) 23.4 km/h - 258º 19:06 TU
Irradiació solar global 17.3 MJ/m2

El tram horari està expressat en Temps Universal (TU). Cal sumar una hora en horari d'hivern i dues en horari d'estiu per passar a l'hora oficial.

PN del Garraf - el Rascler

Metadades estació meteorològica
Municipi Begues
Comarca Baix Llobregat
Altitud 573 m
Data alta 29.02.1996
Estat actual Operativa
Dades de període
Període
TU
TM
°C
TX
°C
TN
°C
HRM
%
PPT
mm
VVM (2 m)
km/h
DVM (2 m)
graus
VVX (2 m)
km/h
RS
W/m2
00:00 - 00:30 6.8 6.9 6.7 97 0.0 6.1 290 14.0 0
00:30 - 01:00 7.1 7.5 6.8 86 0.0 8.3 299 16.2 0
01:00 - 01:30 7.9 8.3 7.5 67 0.0 7.2 310 12.2 0
01:30 - 02:00 8.0 8.3 7.8 58 0.0 3.6 278 8.6 0
02:00 - 02:30 7.9 8.1 7.4 61 0.0 2.5 198 7.2 0
02:30 - 03:00 6.8 7.3 6.6 87 0.0 3.6 104 7.2 0
03:00 - 03:30 6.8 7.1 6.7 88 0.0 4.0 70 7.9 0
03:30 - 04:00 6.5 6.9 6.2 87 0.0 5.8 71 9.7 0
04:00 - 04:30 6.1 6.2 5.9 92 0.0 5.0 78 9.0 0
04:30 - 05:00 6.0 6.2 5.9 96 0.0 5.0 76 9.4 0
05:00 - 05:30 6.1 6.2 6.0 97 0.0 4.7 76 9.0 3
05:30 - 06:00 6.1 6.3 6.1 98 0.0 4.3 81 7.2 23
06:00 - 06:30 6.7 7.3 6.3 97 0.0 4.0 80 8.3 93
06:30 - 07:00 7.5 8.4 7.0 94 0.0 2.9 74 7.2 174
07:00 - 07:30 8.6 9.0 7.9 89 0.0 4.0 75 10.1 272
07:30 - 08:00 8.3 8.9 7.9 88 0.0 4.3 71 10.4 318
08:00 - 08:30 8.4 8.8 8.1 85 0.0 2.5 37 12.2 281
08:30 - 09:00 9.1 9.8 8.2 82 0.0 2.5 67 11.2 386
09:00 - 09:30 9.1 9.7 8.6 80 0.0 2.5 27 9.0 379
09:30 - 10:00 10.7 11.6 9.8 73 0.0 2.9 73 11.9 655
10:00 - 10:30 10.1 10.7 9.6 72 0.0 3.6 111 18.0 566
10:30 - 11:00 10.6 11.3 10.2 70 0.0 3.2 96 11.2 621
11:00 - 11:30 10.3 10.9 9.9 71 0.0 4.0 108 16.6 681
11:30 - 12:00 10.6 11.2 10.2 70 0.0 4.7 115 15.1 745
12:00 - 12:30 11.4 12.2 10.6 67 0.0 5.8 122 17.6 932
12:30 - 13:00 12.0 13.2 11.0 66 0.0 5.4 134 15.8 760
13:00 - 13:30 11.2 11.7 10.8 68 0.0 5.8 132 17.3 644
13:30 - 14:00 10.5 11.3 10.0 72 0.0 5.4 144 15.5 376
14:00 - 14:30 10.6 11.4 9.9 74 0.0 4.7 161 18.7 446
14:30 - 15:00 10.3 10.9 9.7 76 0.0 5.4 158 16.9 363
15:00 - 15:30 10.1 10.3 9.8 80 0.0 4.0 156 11.5 252
15:30 - 16:00 10.0 10.2 9.6 82 0.0 3.6 157 13.3 239
16:00 - 16:30 9.8 10.2 9.3 85 0.0 4.3 185 13.3 210
16:30 - 17:00 9.2 9.5 8.9 90 0.0 6.1 202 13.0 126
17:00 - 17:30 9.0 9.2 8.9 93 0.0 4.7 201 12.6 69
17:30 - 18:00 9.0 9.1 8.9 94 0.0 2.2 160 9.0 22
18:00 - 18:30 9.1 9.2 8.8 96 0.0 4.0 191 10.4 9
18:30 - 19:00 8.8 8.9 8.7 98 0.0 7.9 246 21.6 0
19:00 - 19:30 8.8 8.8 8.7 98 0.0 12.2 261 23.4 0
19:30 - 20:00 8.7 8.8 8.6 98 0.0 8.3 265 18.4 0
20:00 - 20:30 8.8 8.8 8.7 99 0.0 6.1 277 16.2 0
20:30 - 21:00 8.6 8.8 8.4 99 0.0 5.0 279 9.7 0
21:00 - 21:30 8.5 8.6 8.5 99 0.0 6.1 273 14.4 0
21:30 - 22:00 8.6 8.7 8.3 99 0.0 4.7 286 13.0 0
22:00 - 22:30 8.5 8.6 8.3 99 0.0 4.7 288 11.9 0
22:30 - 23:00 8.3 8.4 8.2 99 0.0 4.0 282 7.2 0
23:00 - 23:30 (s/d) (s/d) (s/d) (s/d) (s/d) (s/d) (s/d) (s/d) (s/d)

Les dades en taronja només han passat un control de qualitat automàtic. Resta pendent la seva validació definitiva.